sensor_id;sensor_type;location;lat;lon;timestamp;P1;durP1;ratioP1;P2;durP2;ratioP2
40076;SDS011;25777;47.824;18.982;2022-08-04T00:00:45;0.47;;;0.30;;
40076;SDS011;25777;47.824;18.982;2022-08-04T00:03:41;1.85;;;0.75;;
40076;SDS011;25777;47.824;18.982;2022-08-04T00:06:33;4.28;;;0.40;;
40076;SDS011;25777;47.824;18.982;2022-08-04T00:11:56;0.40;;;0.32;;
40076;SDS011;25777;47.824;18.982;2022-08-04T00:14:26;0.30;;;0.30;;
40076;SDS011;25777;47.824;18.982;2022-08-04T00:16:59;0.20;;;0.13;;
40076;SDS011;25777;47.824;18.982;2022-08-04T00:19:32;0.13;;;0.10;;
40076;SDS011;25777;47.824;18.982;2022-08-04T00:22:05;0.10;;;0.10;;
40076;SDS011;25777;47.824;18.982;2022-08-04T00:24:35;0.55;;;0.32;;
40076;SDS011;25777;47.824;18.982;2022-08-04T00:27:02;0.20;;;0.20;;
40076;SDS011;25777;47.824;18.982;2022-08-04T00:29:29;0.55;;;0.40;;
40076;SDS011;25777;47.824;18.982;2022-08-04T00:31:56;0.75;;;0.20;;
40076;SDS011;25777;47.824;18.982;2022-08-04T00:34:26;0.30;;;0.25;;
40076;SDS011;25777;47.824;18.982;2022-08-04T00:36:53;0.13;;;0.13;;
40076;SDS011;25777;47.824;18.982;2022-08-04T00:39:21;0.10;;;0.03;;
40076;SDS011;25777;47.824;18.982;2022-08-04T00:47:38;0.22;;;0.10;;
40076;SDS011;25777;47.824;18.982;2022-08-04T00:50:31;0.57;;;0.43;;
40076;SDS011;25777;47.824;18.982;2022-08-04T00:53:38;0.60;;;0.50;;
40076;SDS011;25777;47.824;18.982;2022-08-04T00:56:22;0.30;;;0.20;;
40076;SDS011;25777;47.824;18.982;2022-08-04T00:59:37;0.30;;;0.30;;
40076;SDS011;25777;47.824;18.982;2022-08-04T01:15:59;0.80;;;0.10;;
40076;SDS011;25777;47.824;18.982;2022-08-04T01:18:32;0.38;;;0.30;;
40076;SDS011;25777;47.824;18.982;2022-08-04T01:29:02;0.88;;;0.80;;
40076;SDS011;25777;47.824;18.982;2022-08-04T01:34:21;0.20;;;0.20;;
40076;SDS011;25777;47.824;18.982;2022-08-04T01:36:55;0.40;;;0.20;;
40076;SDS011;25777;47.824;18.982;2022-08-04T01:39:34;0.25;;;0.25;;
40076;SDS011;25777;47.824;18.982;2022-08-04T01:42:09;0.85;;;0.20;;
40076;SDS011;25777;47.824;18.982;2022-08-04T01:44:36;0.40;;;0.38;;
40076;SDS011;25777;47.824;18.982;2022-08-04T01:47:04;0.10;;;0.10;;
40076;SDS011;25777;47.824;18.982;2022-08-04T01:49:32;0.35;;;0.35;;
40076;SDS011;25777;47.824;18.982;2022-08-04T01:51:59;0.70;;;0.20;;
40076;SDS011;25777;47.824;18.982;2022-08-04T01:54:27;0.28;;;0.17;;
40076;SDS011;25777;47.824;18.982;2022-08-04T01:56:56;0.88;;;0.73;;
40076;SDS011;25777;47.824;18.982;2022-08-04T01:59:24;0.30;;;0.30;;
40076;SDS011;25777;47.824;18.982;2022-08-04T02:01:56;0.22;;;0.13;;
40076;SDS011;25777;47.824;18.982;2022-08-04T02:04:21;0.35;;;0.20;;
40076;SDS011;25777;47.824;18.982;2022-08-04T02:12:26;0.22;;;0.22;;
40076;SDS011;25777;47.824;18.982;2022-08-04T02:17:54;0.40;;;0.40;;
40076;SDS011;25777;47.824;18.982;2022-08-04T02:20:43;0.22;;;0.20;;
40076;SDS011;25777;47.824;18.982;2022-08-04T02:23:34;0.45;;;0.38;;
40076;SDS011;25777;47.824;18.982;2022-08-04T02:26:03;0.95;;;0.65;;
40076;SDS011;25777;47.824;18.982;2022-08-04T02:31:26;0.60;;;0.55;;
40076;SDS011;25777;47.824;18.982;2022-08-04T02:36:35;0.30;;;0.30;;
40076;SDS011;25777;47.824;18.982;2022-08-04T02:39:04;0.52;;;0.32;;
40076;SDS011;25777;47.824;18.982;2022-08-04T02:41:34;0.30;;;0.30;;
40076;SDS011;25777;47.824;18.982;2022-08-04T02:44:02;1.05;;;0.88;;
40076;SDS011;25777;47.824;18.982;2022-08-04T02:46:29;0.30;;;0.15;;
40076;SDS011;25777;47.824;18.982;2022-08-04T02:48:56;0.57;;;0.55;;
40076;SDS011;25777;47.824;18.982;2022-08-04T02:51:26;0.70;;;0.45;;
40076;SDS011;25777;47.824;18.982;2022-08-04T02:53:55;0.93;;;0.57;;
40076;SDS011;25777;47.824;18.982;2022-08-04T02:56:22;0.65;;;0.50;;
40076;SDS011;25777;47.824;18.982;2022-08-04T02:58:57;0.38;;;0.38;;
40076;SDS011;25777;47.824;18.982;2022-08-04T03:01:26;0.38;;;0.38;;
40076;SDS011;25777;47.824;18.982;2022-08-04T03:20:44;0.80;;;0.80;;
40076;SDS011;25777;47.824;18.982;2022-08-04T03:31:32;0.47;;;0.10;;
40076;SDS011;25777;47.824;18.982;2022-08-04T03:37:02;0.63;;;0.50;;
40076;SDS011;25777;47.824;18.982;2022-08-04T03:42:43;0.13;;;0.10;;
40076;SDS011;25777;47.824;18.982;2022-08-04T03:55:59;0.47;;;0.35;;
40076;SDS011;25777;47.824;18.982;2022-08-04T03:59:13;0.73;;;0.55;;
40076;SDS011;25777;47.824;18.982;2022-08-04T04:08:07;0.73;;;0.70;;
40076;SDS011;25777;47.824;18.982;2022-08-04T04:34:07;1.65;;;1.17;;
40076;SDS011;25777;47.824;18.982;2022-08-04T04:48:26;0.55;;;0.52;;
40076;SDS011;25777;47.824;18.982;2022-08-04T04:51:22;0.40;;;0.40;;
40076;SDS011;25777;47.824;18.982;2022-08-04T04:54:01;1.35;;;0.52;;
40076;SDS011;25777;47.824;18.982;2022-08-04T04:59:36;1.55;;;0.90;;
40076;SDS011;25777;47.824;18.982;2022-08-04T05:13:26;0.68;;;0.68;;
40076;SDS011;25777;47.824;18.982;2022-08-04T05:16:20;0.65;;;0.60;;
40076;SDS011;25777;47.824;18.982;2022-08-04T05:22:24;5.07;;;0.98;;
40076;SDS011;25777;47.824;18.982;2022-08-04T05:25:00;0.50;;;0.50;;
40076;SDS011;25777;47.824;18.982;2022-08-04T05:30:14;1.73;;;0.95;;
40076;SDS011;25777;47.824;18.982;2022-08-04T05:32:45;0.65;;;0.65;;
40076;SDS011;25777;47.824;18.982;2022-08-04T05:35:20;0.88;;;0.52;;
40076;SDS011;25777;47.824;18.982;2022-08-04T05:37:52;0.65;;;0.35;;
40076;SDS011;25777;47.824;18.982;2022-08-04T05:40:21;2.55;;;0.85;;
40076;SDS011;25777;47.824;18.982;2022-08-04T05:42:49;1.08;;;0.95;;
40076;SDS011;25777;47.824;18.982;2022-08-04T05:45:17;1.80;;;1.20;;
40076;SDS011;25777;47.824;18.982;2022-08-04T05:47:44;0.50;;;0.22;;
40076;SDS011;25777;47.824;18.982;2022-08-04T05:50:11;0.55;;;0.40;;
40076;SDS011;25777;47.824;18.982;2022-08-04T05:52:38;0.57;;;0.35;;
40076;SDS011;25777;47.824;18.982;2022-08-04T05:55:06;0.75;;;0.52;;
40076;SDS011;25777;47.824;18.982;2022-08-04T05:57:33;1.65;;;1.00;;
40076;SDS011;25777;47.824;18.982;2022-08-04T06:00:02;0.70;;;0.70;;
40076;SDS011;25777;47.824;18.982;2022-08-04T06:02:30;0.70;;;0.70;;
40076;SDS011;25777;47.824;18.982;2022-08-04T06:04:59;1.33;;;1.00;;
40076;SDS011;25777;47.824;18.982;2022-08-04T06:07:26;0.70;;;0.43;;
40076;SDS011;25777;47.824;18.982;2022-08-04T06:09:52;1.15;;;0.47;;
40076;SDS011;25777;47.824;18.982;2022-08-04T06:12:24;0.80;;;0.68;;
40076;SDS011;25777;47.824;18.982;2022-08-04T06:15:03;0.40;;;0.40;;
40076;SDS011;25777;47.824;18.982;2022-08-04T06:17:37;1.70;;;0.30;;
40076;SDS011;25777;47.824;18.982;2022-08-04T06:20:06;1.45;;;0.50;;
40076;SDS011;25777;47.824;18.982;2022-08-04T06:22:34;1.80;;;0.98;;
40076;SDS011;25777;47.824;18.982;2022-08-04T06:25:06;0.55;;;0.55;;
40076;SDS011;25777;47.824;18.982;2022-08-04T06:27:36;0.55;;;0.55;;
40076;SDS011;25777;47.824;18.982;2022-08-04T06:30:02;1.23;;;0.80;;
40076;SDS011;25777;47.824;18.982;2022-08-04T06:32:31;0.40;;;0.40;;
40076;SDS011;25777;47.824;18.982;2022-08-04T06:35:04;0.68;;;0.30;;
40076;SDS011;25777;47.824;18.982;2022-08-04T06:37:31;0.73;;;0.40;;
40076;SDS011;25777;47.824;18.982;2022-08-04T06:40:01;0.52;;;0.30;;
40076;SDS011;25777;47.824;18.982;2022-08-04T06:42:28;1.73;;;0.63;;
40076;SDS011;25777;47.824;18.982;2022-08-04T06:44:56;0.35;;;0.35;;
40076;SDS011;25777;47.824;18.982;2022-08-04T06:47:23;1.00;;;0.52;;
40076;SDS011;25777;47.824;18.982;2022-08-04T06:49:51;0.35;;;0.35;;
40076;SDS011;25777;47.824;18.982;2022-08-04T06:52:19;0.30;;;0.30;;
40076;SDS011;25777;47.824;18.982;2022-08-04T06:54:46;0.63;;;0.32;;
40076;SDS011;25777;47.824;18.982;2022-08-04T06:57:14;0.30;;;0.30;;
40076;SDS011;25777;47.824;18.982;2022-08-04T06:59:45;0.20;;;0.20;;
40076;SDS011;25777;47.824;18.982;2022-08-04T07:02:21;1.13;;;0.73;;
40076;SDS011;25777;47.824;18.982;2022-08-04T07:04:50;0.45;;;0.45;;
40076;SDS011;25777;47.824;18.982;2022-08-04T07:07:16;0.47;;;0.40;;
40076;SDS011;25777;47.824;18.982;2022-08-04T07:09:43;0.98;;;0.55;;
40076;SDS011;25777;47.824;18.982;2022-08-04T07:12:10;0.40;;;0.32;;
40076;SDS011;25777;47.824;18.982;2022-08-04T07:14:38;0.73;;;0.30;;
40076;SDS011;25777;47.824;18.982;2022-08-04T07:17:05;0.50;;;0.47;;
40076;SDS011;25777;47.824;18.982;2022-08-04T07:19:36;0.57;;;0.30;;
40076;SDS011;25777;47.824;18.982;2022-08-04T07:22:02;0.38;;;0.35;;
40076;SDS011;25777;47.824;18.982;2022-08-04T07:24:31;1.95;;;0.60;;
40076;SDS011;25777;47.824;18.982;2022-08-04T07:26:58;0.20;;;0.20;;
40076;SDS011;25777;47.824;18.982;2022-08-04T07:29:25;0.70;;;0.47;;
40076;SDS011;25777;47.824;18.982;2022-08-04T07:31:52;0.57;;;0.38;;
40076;SDS011;25777;47.824;18.982;2022-08-04T07:34:19;0.73;;;0.60;;
40076;SDS011;25777;47.824;18.982;2022-08-04T07:36:46;1.00;;;0.52;;
40076;SDS011;25777;47.824;18.982;2022-08-04T07:39:16;0.30;;;0.30;;
40076;SDS011;25777;47.824;18.982;2022-08-04T07:41:43;0.52;;;0.22;;
40076;SDS011;25777;47.824;18.982;2022-08-04T07:44:09;1.05;;;0.40;;
40076;SDS011;25777;47.824;18.982;2022-08-04T07:46:38;0.52;;;0.50;;
40076;SDS011;25777;47.824;18.982;2022-08-04T07:49:04;1.05;;;0.70;;
40076;SDS011;25777;47.824;18.982;2022-08-04T07:51:31;0.47;;;0.30;;
40076;SDS011;25777;47.824;18.982;2022-08-04T07:53:59;0.40;;;0.40;;
40076;SDS011;25777;47.824;18.982;2022-08-04T07:56:32;0.63;;;0.43;;
40076;SDS011;25777;47.824;18.982;2022-08-04T07:59:02;0.63;;;0.40;;
40076;SDS011;25777;47.824;18.982;2022-08-04T08:01:28;0.52;;;0.50;;
40076;SDS011;25777;47.824;18.982;2022-08-04T08:03:56;0.60;;;0.30;;
40076;SDS011;25777;47.824;18.982;2022-08-04T08:06:23;0.55;;;0.55;;
40076;SDS011;25777;47.824;18.982;2022-08-04T08:08:49;0.30;;;0.30;;
40076;SDS011;25777;47.824;18.982;2022-08-04T08:11:15;0.88;;;0.43;;
40076;SDS011;25777;47.824;18.982;2022-08-04T08:13:42;0.13;;;0.10;;
40076;SDS011;25777;47.824;18.982;2022-08-04T08:16:09;0.43;;;0.30;;
40076;SDS011;25777;47.824;18.982;2022-08-04T08:18:36;0.82;;;0.80;;
40076;SDS011;25777;47.824;18.982;2022-08-04T08:21:02;0.32;;;0.32;;
40076;SDS011;25777;47.824;18.982;2022-08-04T08:23:29;1.35;;;1.00;;
40076;SDS011;25777;47.824;18.982;2022-08-04T08:25:58;1.05;;;0.47;;
40076;SDS011;25777;47.824;18.982;2022-08-04T08:28:24;0.57;;;0.40;;
40076;SDS011;25777;47.824;18.982;2022-08-04T08:30:51;0.70;;;0.65;;
40076;SDS011;25777;47.824;18.982;2022-08-04T08:33:17;0.75;;;0.60;;
40076;SDS011;25777;47.824;18.982;2022-08-04T08:35:46;0.65;;;0.63;;
40076;SDS011;25777;47.824;18.982;2022-08-04T09:01:29;0.20;;;0.13;;
40076;SDS011;25777;47.824;18.982;2022-08-04T09:12:29;0.75;;;0.40;;
40076;SDS011;25777;47.824;18.982;2022-08-04T09:15:06;0.22;;;0.22;;
40076;SDS011;25777;47.824;18.982;2022-08-04T09:18:02;0.47;;;0.47;;
40076;SDS011;25777;47.824;18.982;2022-08-04T09:23:33;0.47;;;0.30;;
40076;SDS011;25777;47.824;18.982;2022-08-04T09:26:14;0.50;;;0.50;;
40076;SDS011;25777;47.824;18.982;2022-08-04T09:29:13;0.10;;;0.05;;
40076;SDS011;25777;47.824;18.982;2022-08-04T09:32:07;0.38;;;0.30;;
40076;SDS011;25777;47.824;18.982;2022-08-04T09:40:28;0.40;;;0.30;;
40076;SDS011;25777;47.824;18.982;2022-08-04T09:45:47;3.85;;;1.55;;
40076;SDS011;25777;47.824;18.982;2022-08-04T09:51:07;1.40;;;0.68;;
40076;SDS011;25777;47.824;18.982;2022-08-04T09:56:48;0.32;;;0.30;;
40076;SDS011;25777;47.824;18.982;2022-08-04T10:02:23;0.40;;;0.40;;
40076;SDS011;25777;47.824;18.982;2022-08-04T10:04:52;1.05;;;0.82;;
40076;SDS011;25777;47.824;18.982;2022-08-04T10:16:00;0.85;;;0.70;;
40076;SDS011;25777;47.824;18.982;2022-08-04T10:19:13;2.47;;;0.57;;
40076;SDS011;25777;47.824;18.982;2022-08-04T10:21:52;0.22;;;0.22;;
40076;SDS011;25777;47.824;18.982;2022-08-04T10:27:42;0.47;;;0.13;;
40076;SDS011;25777;47.824;18.982;2022-08-04T10:30:21;0.52;;;0.32;;
40076;SDS011;25777;47.824;18.982;2022-08-04T10:32:52;0.52;;;0.40;;
40076;SDS011;25777;47.824;18.982;2022-08-04T10:35:24;0.22;;;0.13;;
40076;SDS011;25777;47.824;18.982;2022-08-04T10:37:59;0.90;;;0.40;;
40076;SDS011;25777;47.824;18.982;2022-08-04T10:40:45;0.38;;;0.38;;
40076;SDS011;25777;47.824;18.982;2022-08-04T10:46:26;6.63;;;0.38;;
40076;SDS011;25777;47.824;18.982;2022-08-04T10:57:33;0.68;;;0.50;;
40076;SDS011;25777;47.824;18.982;2022-08-04T11:00:04;1.70;;;1.30;;
40076;SDS011;25777;47.824;18.982;2022-08-04T11:07:56;0.63;;;0.32;;
40076;SDS011;25777;47.824;18.982;2022-08-04T11:10:27;0.47;;;0.20;;
40076;SDS011;25777;47.824;18.982;2022-08-04T11:12:58;0.63;;;0.60;;
40076;SDS011;25777;47.824;18.982;2022-08-04T11:15:32;0.65;;;0.50;;
40076;SDS011;25777;47.824;18.982;2022-08-04T11:18:13;0.30;;;0.30;;
40076;SDS011;25777;47.824;18.982;2022-08-04T11:21:25;0.77;;;0.43;;
40076;SDS011;25777;47.824;18.982;2022-08-04T11:24:04;0.20;;;0.20;;
40076;SDS011;25777;47.824;18.982;2022-08-04T11:32:19;0.28;;;0.28;;
40076;SDS011;25777;47.824;18.982;2022-08-04T11:34:56;0.15;;;0.10;;
40076;SDS011;25777;47.824;18.982;2022-08-04T11:37:49;0.25;;;0.25;;
40076;SDS011;25777;47.824;18.982;2022-08-04T11:40:55;0.40;;;0.40;;
40076;SDS011;25777;47.824;18.982;2022-08-04T11:43:35;0.45;;;0.40;;
40076;SDS011;25777;47.824;18.982;2022-08-04T11:46:38;0.43;;;0.35;;
40076;SDS011;25777;47.824;18.982;2022-08-04T11:49:23;0.85;;;0.68;;
40076;SDS011;25777;47.824;18.982;2022-08-04T11:51:55;0.28;;;0.28;;
40076;SDS011;25777;47.824;18.982;2022-08-04T11:54:24;0.60;;;0.35;;
40076;SDS011;25777;47.824;18.982;2022-08-04T11:56:52;0.77;;;0.28;;
40076;SDS011;25777;47.824;18.982;2022-08-04T11:59:19;0.45;;;0.20;;
40076;SDS011;25777;47.824;18.982;2022-08-04T12:02:04;0.40;;;0.40;;
40076;SDS011;25777;47.824;18.982;2022-08-04T12:05:24;0.52;;;0.30;;
40076;SDS011;25777;47.824;18.982;2022-08-04T12:07:40;0.38;;;0.30;;
40076;SDS011;25777;47.824;18.982;2022-08-04T12:13:08;0.25;;;0.25;;
40076;SDS011;25777;47.824;18.982;2022-08-04T12:15:47;0.30;;;0.30;;
40076;SDS011;25777;47.824;18.982;2022-08-04T12:20:57;0.45;;;0.40;;
40076;SDS011;25777;47.824;18.982;2022-08-04T12:23:30;0.47;;;0.40;;
40076;SDS011;25777;47.824;18.982;2022-08-04T12:26:01;0.70;;;0.40;;
40076;SDS011;25777;47.824;18.982;2022-08-04T12:28:31;0.63;;;0.40;;
40076;SDS011;25777;47.824;18.982;2022-08-04T12:31:09;0.38;;;0.38;;
40076;SDS011;25777;47.824;18.982;2022-08-04T12:36:44;0.65;;;0.40;;
40076;SDS011;25777;47.824;18.982;2022-08-04T12:39:15;0.65;;;0.40;;
40076;SDS011;25777;47.824;18.982;2022-08-04T12:41:49;0.50;;;0.50;;
40076;SDS011;25777;47.824;18.982;2022-08-04T12:44:29;0.35;;;0.30;;
40076;SDS011;25777;47.824;18.982;2022-08-04T12:46:57;0.75;;;0.35;;
40076;SDS011;25777;47.824;18.982;2022-08-04T12:49:25;0.73;;;0.70;;
40076;SDS011;25777;47.824;18.982;2022-08-04T12:51:52;0.20;;;0.20;;
40076;SDS011;25777;47.824;18.982;2022-08-04T12:54:24;0.65;;;0.40;;
40076;SDS011;25777;47.824;18.982;2022-08-04T12:56:51;0.50;;;0.50;;
40076;SDS011;25777;47.824;18.982;2022-08-04T12:59:22;0.65;;;0.57;;
40076;SDS011;25777;47.824;18.982;2022-08-04T13:01:48;0.20;;;0.20;;
40076;SDS011;25777;47.824;18.982;2022-08-04T13:04:22;0.63;;;0.55;;
40076;SDS011;25777;47.824;18.982;2022-08-04T13:09:39;1.02;;;0.40;;
40076;SDS011;25777;47.824;18.982;2022-08-04T13:12:14;0.40;;;0.30;;
40076;SDS011;25777;47.824;18.982;2022-08-04T13:14:49;0.68;;;0.32;;
40076;SDS011;25777;47.824;18.982;2022-08-04T13:17:23;0.45;;;0.43;;
40076;SDS011;25777;47.824;18.982;2022-08-04T13:19:49;0.52;;;0.40;;
40076;SDS011;25777;47.824;18.982;2022-08-04T13:22:26;0.40;;;0.38;;
40076;SDS011;25777;47.824;18.982;2022-08-04T13:24:54;1.27;;;0.50;;
40076;SDS011;25777;47.824;18.982;2022-08-04T13:27:22;0.25;;;0.25;;
40076;SDS011;25777;47.824;18.982;2022-08-04T13:29:50;0.20;;;0.20;;
40076;SDS011;25777;47.824;18.982;2022-08-04T13:32:20;0.35;;;0.20;;
40076;SDS011;25777;47.824;18.982;2022-08-04T13:34:50;0.20;;;0.17;;
40076;SDS011;25777;47.824;18.982;2022-08-04T13:37:19;0.38;;;0.25;;
40076;SDS011;25777;47.824;18.982;2022-08-04T13:39:51;0.57;;;0.35;;
40076;SDS011;25777;47.824;18.982;2022-08-04T13:42:18;0.40;;;0.30;;
40076;SDS011;25777;47.824;18.982;2022-08-04T13:44:48;0.28;;;0.25;;
40076;SDS011;25777;47.824;18.982;2022-08-04T13:47:21;0.30;;;0.30;;
40076;SDS011;25777;47.824;18.982;2022-08-04T13:50:06;0.20;;;0.20;;
40076;SDS011;25777;47.824;18.982;2022-08-04T13:52:42;0.47;;;0.30;;
40076;SDS011;25777;47.824;18.982;2022-08-04T13:55:27;0.43;;;0.30;;
40076;SDS011;25777;47.824;18.982;2022-08-04T13:57:54;0.65;;;0.22;;
40076;SDS011;25777;47.824;18.982;2022-08-04T14:00:39;0.82;;;0.52;;
40076;SDS011;25777;47.824;18.982;2022-08-04T14:03:21;2.38;;;0.60;;
40076;SDS011;25777;47.824;18.982;2022-08-04T14:08:58;0.63;;;0.40;;
40076;SDS011;25777;47.824;18.982;2022-08-04T14:11:33;1.38;;;0.40;;
40076;SDS011;25777;47.824;18.982;2022-08-04T14:14:21;0.32;;;0.20;;
40076;SDS011;25777;47.824;18.982;2022-08-04T14:20:13;0.43;;;0.30;;
40076;SDS011;25777;47.824;18.982;2022-08-04T14:27:48;0.30;;;0.20;;
40076;SDS011;25777;47.824;18.982;2022-08-04T14:30:19;0.20;;;0.20;;
40076;SDS011;25777;47.824;18.982;2022-08-04T14:33:00;0.65;;;0.30;;
40076;SDS011;25777;47.824;18.982;2022-08-04T14:35:28;0.80;;;0.40;;
40076;SDS011;25777;47.824;18.982;2022-08-04T14:38:03;0.35;;;0.30;;
40076;SDS011;25777;47.824;18.982;2022-08-04T14:40:34;0.50;;;0.40;;
40076;SDS011;25777;47.824;18.982;2022-08-04T14:43:02;0.30;;;0.30;;
40076;SDS011;25777;47.824;18.982;2022-08-04T14:47:56;0.50;;;0.40;;
40076;SDS011;25777;47.824;18.982;2022-08-04T14:50:44;0.70;;;0.52;;
40076;SDS011;25777;47.824;18.982;2022-08-04T14:53:15;0.52;;;0.38;;
40076;SDS011;25777;47.824;18.982;2022-08-04T14:55:49;0.85;;;0.50;;
40076;SDS011;25777;47.824;18.982;2022-08-04T14:58:17;0.43;;;0.40;;
40076;SDS011;25777;47.824;18.982;2022-08-04T15:00:44;0.68;;;0.68;;
40076;SDS011;25777;47.824;18.982;2022-08-04T15:03:11;0.82;;;0.60;;
40076;SDS011;25777;47.824;18.982;2022-08-04T15:05:41;0.43;;;0.43;;
40076;SDS011;25777;47.824;18.982;2022-08-04T15:08:08;4.18;;;1.35;;
40076;SDS011;25777;47.824;18.982;2022-08-04T15:10:34;1.55;;;0.57;;
40076;SDS011;25777;47.824;18.982;2022-08-04T15:13:03;0.88;;;0.47;;
40076;SDS011;25777;47.824;18.982;2022-08-04T15:15:30;1.10;;;0.85;;
40076;SDS011;25777;47.824;18.982;2022-08-04T15:17:57;0.30;;;0.30;;
40076;SDS011;25777;47.824;18.982;2022-08-04T15:20:24;0.50;;;0.40;;
40076;SDS011;25777;47.824;18.982;2022-08-04T15:22:50;0.47;;;0.47;;
40076;SDS011;25777;47.824;18.982;2022-08-04T15:25:17;0.70;;;0.52;;
40076;SDS011;25777;47.824;18.982;2022-08-04T15:27:45;0.75;;;0.38;;
40076;SDS011;25777;47.824;18.982;2022-08-04T15:30:14;0.40;;;0.40;;
40076;SDS011;25777;47.824;18.982;2022-08-04T15:32:48;0.30;;;0.30;;
40076;SDS011;25777;47.824;18.982;2022-08-04T15:35:22;0.50;;;0.40;;
40076;SDS011;25777;47.824;18.982;2022-08-04T15:53:23;0.70;;;0.35;;
40076;SDS011;25777;47.824;18.982;2022-08-04T15:55:54;0.30;;;0.30;;
40076;SDS011;25777;47.824;18.982;2022-08-04T15:58:21;0.55;;;0.30;;
40076;SDS011;25777;47.824;18.982;2022-08-04T16:16:25;0.73;;;0.43;;
40076;SDS011;25777;47.824;18.982;2022-08-04T16:21:31;0.82;;;0.40;;
40076;SDS011;25777;47.824;18.982;2022-08-04T16:24:08;0.43;;;0.28;;
40076;SDS011;25777;47.824;18.982;2022-08-04T16:26:42;0.55;;;0.47;;
40076;SDS011;25777;47.824;18.982;2022-08-04T16:34:40;1.08;;;0.73;;
40076;SDS011;25777;47.824;18.982;2022-08-04T16:37:10;0.75;;;0.47;;
40076;SDS011;25777;47.824;18.982;2022-08-04T16:39:38;1.00;;;0.40;;
40076;SDS011;25777;47.824;18.982;2022-08-04T16:45:08;0.77;;;0.45;;
40076;SDS011;25777;47.824;18.982;2022-08-04T16:48:19;0.65;;;0.50;;
40076;SDS011;25777;47.824;18.982;2022-08-04T16:50:25;1.02;;;0.60;;
40076;SDS011;25777;47.824;18.982;2022-08-04T16:52:53;0.52;;;0.52;;
40076;SDS011;25777;47.824;18.982;2022-08-04T16:55:20;0.40;;;0.30;;
40076;SDS011;25777;47.824;18.982;2022-08-04T16:57:52;0.47;;;0.47;;
40076;SDS011;25777;47.824;18.982;2022-08-04T17:00:31;0.47;;;0.47;;
40076;SDS011;25777;47.824;18.982;2022-08-04T17:03:06;0.55;;;0.30;;
40076;SDS011;25777;47.824;18.982;2022-08-04T17:05:36;0.50;;;0.50;;
40076;SDS011;25777;47.824;18.982;2022-08-04T17:08:02;0.50;;;0.50;;
40076;SDS011;25777;47.824;18.982;2022-08-04T17:10:39;0.32;;;0.32;;
40076;SDS011;25777;47.824;18.982;2022-08-04T17:13:20;0.82;;;0.60;;
40076;SDS011;25777;47.824;18.982;2022-08-04T17:15:52;0.75;;;0.60;;
40076;SDS011;25777;47.824;18.982;2022-08-04T17:18:30;0.57;;;0.38;;
40076;SDS011;25777;47.824;18.982;2022-08-04T17:21:07;0.90;;;0.50;;
40076;SDS011;25777;47.824;18.982;2022-08-04T17:23:42;0.85;;;0.50;;
40076;SDS011;25777;47.824;18.982;2022-08-04T17:26:13;0.60;;;0.60;;
40076;SDS011;25777;47.824;18.982;2022-08-04T17:28:45;0.60;;;0.47;;
40076;SDS011;25777;47.824;18.982;2022-08-04T17:31:12;1.02;;;0.38;;
40076;SDS011;25777;47.824;18.982;2022-08-04T17:33:38;0.65;;;0.57;;
40076;SDS011;25777;47.824;18.982;2022-08-04T17:36:09;0.50;;;0.50;;
40076;SDS011;25777;47.824;18.982;2022-08-04T17:38:37;0.45;;;0.40;;
40076;SDS011;25777;47.824;18.982;2022-08-04T17:41:06;0.63;;;0.30;;
40076;SDS011;25777;47.824;18.982;2022-08-04T17:43:41;1.00;;;0.65;;
40076;SDS011;25777;47.824;18.982;2022-08-04T17:46:15;0.40;;;0.40;;
40076;SDS011;25777;47.824;18.982;2022-08-04T17:48:57;0.55;;;0.55;;
40076;SDS011;25777;47.824;18.982;2022-08-04T17:51:34;0.68;;;0.47;;
40076;SDS011;25777;47.824;18.982;2022-08-04T17:54:03;0.40;;;0.40;;
40076;SDS011;25777;47.824;18.982;2022-08-04T17:56:30;1.45;;;0.60;;
40076;SDS011;25777;47.824;18.982;2022-08-04T17:59:07;0.30;;;0.30;;
40076;SDS011;25777;47.824;18.982;2022-08-04T18:09:35;1.08;;;0.68;;
40076;SDS011;25777;47.824;18.982;2022-08-04T18:12:04;0.43;;;0.43;;
40076;SDS011;25777;47.824;18.982;2022-08-04T18:14:39;1.38;;;0.85;;
40076;SDS011;25777;47.824;18.982;2022-08-04T18:17:07;1.15;;;0.85;;
40076;SDS011;25777;47.824;18.982;2022-08-04T18:19:34;0.50;;;0.50;;
40076;SDS011;25777;47.824;18.982;2022-08-04T18:22:04;0.57;;;0.50;;
40076;SDS011;25777;47.824;18.982;2022-08-04T18:24:33;0.52;;;0.40;;
40076;SDS011;25777;47.824;18.982;2022-08-04T18:26:59;1.13;;;0.80;;
40076;SDS011;25777;47.824;18.982;2022-08-04T18:29:26;0.43;;;0.32;;
40076;SDS011;25777;47.824;18.982;2022-08-04T18:31:52;2.60;;;1.17;;
40076;SDS011;25777;47.824;18.982;2022-08-04T18:34:19;2.00;;;1.48;;
40076;SDS011;25777;47.824;18.982;2022-08-04T18:36:45;4.68;;;3.20;;
40076;SDS011;25777;47.824;18.982;2022-08-04T18:39:10;5.00;;;3.28;;
40076;SDS011;25777;47.824;18.982;2022-08-04T18:41:36;3.08;;;1.98;;
40076;SDS011;25777;47.824;18.982;2022-08-04T18:44:03;3.47;;;1.58;;
40076;SDS011;25777;47.824;18.982;2022-08-04T18:46:29;1.60;;;1.02;;
40076;SDS011;25777;47.824;18.982;2022-08-04T18:48:55;0.80;;;0.73;;
40076;SDS011;25777;47.824;18.982;2022-08-04T18:51:21;1.25;;;1.00;;
40076;SDS011;25777;47.824;18.982;2022-08-04T18:53:48;3.05;;;1.77;;
40076;SDS011;25777;47.824;18.982;2022-08-04T18:56:14;2.28;;;1.33;;
40076;SDS011;25777;47.824;18.982;2022-08-04T18:58:41;2.55;;;1.90;;
40076;SDS011;25777;47.824;18.982;2022-08-04T19:01:08;1.73;;;1.63;;
40076;SDS011;25777;47.824;18.982;2022-08-04T19:03:35;1.40;;;1.00;;
40076;SDS011;25777;47.824;18.982;2022-08-04T19:06:01;10.18;;;2.75;;
40076;SDS011;25777;47.824;18.982;2022-08-04T19:08:28;10.98;;;5.35;;
40076;SDS011;25777;47.824;18.982;2022-08-04T19:10:55;6.45;;;3.70;;
40076;SDS011;25777;47.824;18.982;2022-08-04T19:13:22;3.05;;;2.53;;
40076;SDS011;25777;47.824;18.982;2022-08-04T19:15:48;9.98;;;4.70;;
40076;SDS011;25777;47.824;18.982;2022-08-04T19:18:14;15.13;;;5.95;;
40076;SDS011;25777;47.824;18.982;2022-08-04T19:20:39;10.52;;;6.50;;
40076;SDS011;25777;47.824;18.982;2022-08-04T19:23:05;4.65;;;3.38;;
40076;SDS011;25777;47.824;18.982;2022-08-04T19:25:31;2.88;;;2.17;;
40076;SDS011;25777;47.824;18.982;2022-08-04T19:27:58;3.45;;;2.17;;
40076;SDS011;25777;47.824;18.982;2022-08-04T19:30:24;2.97;;;2.67;;
40076;SDS011;25777;47.824;18.982;2022-08-04T19:32:50;6.57;;;4.40;;
40076;SDS011;25777;47.824;18.982;2022-08-04T19:35:16;5.40;;;2.85;;
40076;SDS011;25777;47.824;18.982;2022-08-04T19:37:42;3.50;;;2.10;;
40076;SDS011;25777;47.824;18.982;2022-08-04T19:40:08;1.42;;;1.33;;
40076;SDS011;25777;47.824;18.982;2022-08-04T19:42:37;1.23;;;1.10;;
40076;SDS011;25777;47.824;18.982;2022-08-04T19:45:05;0.88;;;0.60;;
40076;SDS011;25777;47.824;18.982;2022-08-04T19:47:31;1.13;;;0.80;;
40076;SDS011;25777;47.824;18.982;2022-08-04T19:49:57;1.92;;;1.33;;
40076;SDS011;25777;47.824;18.982;2022-08-04T19:52:23;0.68;;;0.68;;
40076;SDS011;25777;47.824;18.982;2022-08-04T19:54:49;1.05;;;0.65;;
40076;SDS011;25777;47.824;18.982;2022-08-04T19:57:15;2.20;;;0.85;;
40076;SDS011;25777;47.824;18.982;2022-08-04T19:59:40;1.98;;;1.42;;
40076;SDS011;25777;47.824;18.982;2022-08-04T20:02:07;1.92;;;1.30;;
40076;SDS011;25777;47.824;18.982;2022-08-04T20:04:33;2.47;;;1.38;;
40076;SDS011;25777;47.824;18.982;2022-08-04T20:06:59;1.92;;;1.42;;
40076;SDS011;25777;47.824;18.982;2022-08-04T20:09:25;1.30;;;1.10;;
40076;SDS011;25777;47.824;18.982;2022-08-04T20:11:52;1.15;;;1.05;;
40076;SDS011;25777;47.824;18.982;2022-08-04T20:14:19;1.40;;;0.90;;